Kemptville, Canada
Current Conditions -  °F | °C
As of 5:00 AM on Thursday 23 Oct 2014 (Local Time) from CYOW Reporting Station
Scattered Clouds Scattered Clouds  
Wind Chill: 38°   Ceiling: Unl
Heat Index: 43°   Visibility: 15mi
Dew Point: 36°   Wind: 8mph
Humidity: 76%   Direction: 360°N
Pressure: 30.14"   Gusts: NA
Location:  45.02°N, 75.65°W
Report Text: CYOW 230900Z 36007KT 15SM SCT085 06/02 A3014 RMK AC3 SLP210
Loading
Personal Weather Stations






























Interactive Weather Map
Tropical Storm Tracking
New forecast layout! Learn more

10-Day Weather Forecast

Advertisements
Track Severe Weather on mobile